createdAt,value
2019-04-02T00:01:21.969Z,25.80
2019-04-02T00:03:55.850Z,27.20
2019-04-02T00:06:26.046Z,27.57
2019-04-02T00:08:56.317Z,25.10
2019-04-02T00:11:26.801Z,29.43
2019-04-02T00:13:56.914Z,26.00
2019-04-02T00:16:27.125Z,28.93
2019-04-02T00:18:57.676Z,26.73
2019-04-02T00:21:27.839Z,30.00
2019-04-02T00:23:58.444Z,28.83
2019-04-02T00:26:29.001Z,28.37
2019-04-02T00:28:59.185Z,27.47
2019-04-02T00:31:29.483Z,28.13
2019-04-02T00:33:59.614Z,27.83
2019-04-02T00:36:29.802Z,31.73
2019-04-02T00:38:59.969Z,32.23
2019-04-02T00:41:30.372Z,31.47
2019-04-02T00:44:01.033Z,31.77
2019-04-02T00:46:31.314Z,28.13
2019-04-02T00:49:01.460Z,30.53
2019-04-02T00:51:31.702Z,30.40
2019-04-02T00:54:02.470Z,28.73
2019-04-02T00:56:33.061Z,27.07
2019-04-02T00:59:03.292Z,30.23
2019-04-02T01:01:33.415Z,30.73
2019-04-02T01:04:03.495Z,28.13
2019-04-02T01:06:34.174Z,29.50
2019-04-02T01:09:06.658Z,33.37
2019-04-02T01:11:36.891Z,30.80
2019-04-02T01:14:07.063Z,32.53
2019-04-02T01:16:37.119Z,30.30
2019-04-02T01:19:08.166Z,29.83
2019-04-02T01:21:38.561Z,28.23
2019-04-02T01:24:08.895Z,30.80
2019-04-02T01:26:38.992Z,30.83
2019-04-02T01:29:12.787Z,28.17
2019-04-02T01:31:44.185Z,31.60
2019-04-02T01:34:15.024Z,31.40
2019-04-02T01:36:45.246Z,33.80
2019-04-02T01:39:15.447Z,31.13
2019-04-02T01:41:45.637Z,33.97
2019-04-02T01:44:15.816Z,36.17
2019-04-02T01:46:46.229Z,36.60
2019-04-02T01:49:16.509Z,35.13
2019-04-02T01:51:46.588Z,35.60
2019-04-02T01:54:16.745Z,33.40
2019-04-02T01:56:46.869Z,33.80
2019-04-02T01:59:17.559Z,33.50
2019-04-02T02:01:49.260Z,34.83
2019-04-02T02:04:20.059Z,34.87
2019-04-02T02:06:50.155Z,34.67
2019-04-02T02:09:20.216Z,32.80
2019-04-02T02:11:50.321Z,35.33
2019-04-02T02:14:20.383Z,33.20
2019-04-02T02:16:50.456Z,34.20
2019-04-02T02:19:20.673Z,33.90
2019-04-02T02:21:50.784Z,37.03
2019-04-02T02:24:21.007Z,33.53
2019-04-02T02:26:51.193Z,32.83
2019-04-02T02:29:21.312Z,34.37
2019-04-02T02:31:51.621Z,31.93
2019-04-02T02:34:21.706Z,33.73
2019-04-02T02:36:51.931Z,36.17
2019-04-02T02:39:22.143Z,34.30
2019-04-02T02:42:05.535Z,35.73
2019-04-02T02:44:35.684Z,37.13
2019-04-02T02:47:05.904Z,37.17
2019-04-02T02:49:36.171Z,34.90
2019-04-02T02:52:06.285Z,31.57
2019-04-02T02:54:36.598Z,35.10
2019-04-02T02:57:06.795Z,30.33
2019-04-02T02:59:37.031Z,32.27
2019-04-02T03:02:07.145Z,29.50
2019-04-02T03:04:37.371Z,32.03
2019-04-02T03:07:07.579Z,32.10
2019-04-02T03:09:37.716Z,33.03
2019-04-02T03:12:07.958Z,34.83
2019-04-02T03:14:39.261Z,31.63
2019-04-02T03:17:11.880Z,34.70
2019-04-02T03:19:44.574Z,37.67
2019-04-02T03:22:16.440Z,36.77
2019-04-02T03:24:49.807Z,40.97
2019-04-02T03:27:17.999Z,39.03
2019-04-02T03:29:48.675Z,36.53
2019-04-02T03:32:18.813Z,40.30
2019-04-02T03:34:48.984Z,43.07
2019-04-02T03:37:19.145Z,37.90
2019-04-02T03:39:49.348Z,37.00
2019-04-02T03:42:19.583Z,36.07
2019-04-02T03:44:49.752Z,38.47
2019-04-02T03:47:20.106Z,39.90
2019-04-02T03:49:51.014Z,38.20
2019-04-02T03:52:21.105Z,34.87
2019-04-02T03:54:52.214Z,35.37
2019-04-02T03:57:24.092Z,38.17
2019-04-02T03:59:55.350Z,35.80
2019-04-02T04:02:26.197Z,35.97
2019-04-02T04:04:56.325Z,35.27
2019-04-02T04:07:26.512Z,37.70
2019-04-02T04:09:56.719Z,36.47
2019-04-02T04:12:26.922Z,37.50
2019-04-02T04:14:57.111Z,37.13
2019-04-02T04:17:27.292Z,39.10
2019-04-02T04:19:57.547Z,35.87
2019-04-02T04:22:30.728Z,37.07
2019-04-02T04:25:00.909Z,39.87
2019-04-02T04:27:33.405Z,42.60
2019-04-02T04:30:02.879Z,42.10
2019-04-02T04:32:33.061Z,36.93
2019-04-02T04:35:03.235Z,34.97
2019-04-02T04:37:33.521Z,35.40
2019-04-02T04:40:04.045Z,36.17
2019-04-02T04:42:34.274Z,40.10
2019-04-02T04:45:04.610Z,37.60
2019-04-02T04:47:34.792Z,39.53
2019-04-02T04:50:05.162Z,35.80
2019-04-02T04:52:35.283Z,38.70
2019-04-02T04:55:05.768Z,33.30
2019-04-02T04:57:35.848Z,36.83
2019-04-02T05:00:06.283Z,37.08
2019-04-02T05:03:12.356Z,40.13
2019-04-02T05:05:42.460Z,36.57
2019-04-02T05:08:12.643Z,34.50
2019-04-02T05:10:42.729Z,33.53
2019-04-02T05:13:14.020Z,39.60
2019-04-02T05:15:44.717Z,35.93
2019-04-02T05:18:17.113Z,36.47
2019-04-02T05:20:50.454Z,37.30
2019-04-02T05:23:20.609Z,41.57
2019-04-02T05:25:50.772Z,39.80
2019-04-02T05:28:21.050Z,36.87
2019-04-02T05:30:51.547Z,39.03
2019-04-02T05:33:21.672Z,38.30
2019-04-02T05:35:51.802Z,37.63
2019-04-02T05:38:22.115Z,37.20
2019-04-02T05:40:52.317Z,39.27
2019-04-02T05:43:22.437Z,34.13
2019-04-02T05:45:52.550Z,36.33
2019-04-02T05:48:22.802Z,37.17
2019-04-02T05:50:52.909Z,38.63
2019-04-02T05:53:23.648Z,39.73
2019-04-02T05:55:53.847Z,36.57
2019-04-02T05:58:24.002Z,37.90
2019-04-02T06:00:54.252Z,38.87
2019-04-02T06:03:24.424Z,37.00
2019-04-02T06:05:54.675Z,34.10
2019-04-02T06:08:24.787Z,28.90
2019-04-02T06:10:54.943Z,33.70
2019-04-02T06:13:25.127Z,34.73
2019-04-02T06:15:56.002Z,36.30
2019-04-02T06:18:26.249Z,32.77
2019-04-02T06:20:56.343Z,33.73
2019-04-02T06:23:26.530Z,34.67
2019-04-02T06:25:56.689Z,33.47
2019-04-02T06:28:26.947Z,33.00
2019-04-02T06:30:57.097Z,33.87
2019-04-02T06:33:27.277Z,35.03
2019-04-02T06:35:57.396Z,32.80
2019-04-02T06:38:27.531Z,32.83
2019-04-02T06:40:57.592Z,32.93
2019-04-02T06:43:27.668Z,32.37
2019-04-02T06:45:57.968Z,31.67
2019-04-02T06:48:45.902Z,41.97
2019-04-02T06:51:17.111Z,37.43
2019-04-02T06:53:47.232Z,33.33
2019-04-02T06:56:17.291Z,29.30
2019-04-02T06:58:47.371Z,34.33
2019-04-02T07:01:31.827Z,29.40
2019-04-02T07:03:49.469Z,30.23
2019-04-02T07:06:20.140Z,31.63
2019-04-02T07:08:50.494Z,30.40
2019-04-02T07:11:21.215Z,28.73
2019-04-02T07:13:52.049Z,36.57
2019-04-02T07:16:22.564Z,29.73
2019-04-02T07:18:52.884Z,32.80
2019-04-02T07:21:23.032Z,27.80
2019-04-02T07:23:53.157Z,31.50
2019-04-02T07:26:23.270Z,28.13
2019-04-02T07:28:54.556Z,28.97
2019-04-02T07:31:24.794Z,28.93
2019-04-02T07:33:54.934Z,30.33
2019-04-02T07:36:25.138Z,29.30
2019-04-02T07:38:55.286Z,33.90
2019-04-02T07:41:25.495Z,28.77
2019-04-02T07:43:55.565Z,28.73
2019-04-02T07:46:25.588Z,29.03
2019-04-02T07:48:56.738Z,27.70
2019-04-02T07:51:27.166Z,26.60
2019-04-02T07:53:57.248Z,25.83
2019-04-02T07:56:27.309Z,26.33
2019-04-02T07:58:57.394Z,26.00
2019-04-02T08:01:27.436Z,29.80
2019-04-02T08:03:57.524Z,27.27
2019-04-02T08:06:27.661Z,27.23
2019-04-02T08:08:57.848Z,24.93
2019-04-02T08:11:27.947Z,24.97
2019-04-02T08:13:58.175Z,26.23
2019-04-02T08:16:28.402Z,28.47
2019-04-02T08:18:58.572Z,25.97
2019-04-02T08:21:28.797Z,26.60
2019-04-02T08:23:58.989Z,28.10
2019-04-02T08:26:32.873Z,25.80
2019-04-02T08:29:02.207Z,24.77
2019-04-02T08:31:35.347Z,24.47
2019-04-02T08:34:07.777Z,24.37
2019-04-02T08:36:37.261Z,24.77
2019-04-02T08:39:08.544Z,24.80
2019-04-02T08:41:38.753Z,25.97
2019-04-02T08:44:08.834Z,24.60
2019-04-02T08:46:38.861Z,24.03
2019-04-02T08:49:08.939Z,26.40
2019-04-02T08:51:38.987Z,28.37
2019-04-02T08:54:09.082Z,26.47
2019-04-02T08:56:39.290Z,27.33
2019-04-02T08:59:09.449Z,23.50
2019-04-02T09:01:39.856Z,23.17
2019-04-02T09:04:10.473Z,18.87
2019-04-02T09:06:40.577Z,16.23
2019-04-02T09:09:10.654Z,14.17
2019-04-02T09:11:40.967Z,14.13
2019-04-02T09:14:11.132Z,14.13
2019-04-02T09:16:41.253Z,14.30
2019-04-02T09:19:11.446Z,15.50
2019-04-02T09:21:41.468Z,15.83
2019-04-02T09:24:11.585Z,13.50
2019-04-02T09:26:41.721Z,13.17
2019-04-02T09:29:12.285Z,12.30
2019-04-02T09:31:43.051Z,12.13
2019-04-02T09:34:13.673Z,12.73
2019-04-02T09:36:43.893Z,12.93
2019-04-02T09:39:14.130Z,12.80
2019-04-02T09:41:45.584Z,12.43
2019-04-02T09:44:15.841Z,11.37
2019-04-02T09:46:45.893Z,10.07
2019-04-02T09:49:16.059Z,9.97
2019-04-02T09:51:46.152Z,10.50
2019-04-02T09:54:16.351Z,11.60
2019-04-02T09:56:46.577Z,10.60
2019-04-02T09:59:16.707Z,11.83
2019-04-02T10:01:47.091Z,12.57
2019-04-02T10:04:17.307Z,11.90
2019-04-02T10:06:47.563Z,15.47
2019-04-02T10:09:18.232Z,14.20
2019-04-02T10:11:49.435Z,15.10
2019-04-02T10:14:20.220Z,15.57
2019-04-02T10:16:50.312Z,19.00
2019-04-02T10:19:20.479Z,19.00
2019-04-02T10:21:50.546Z,20.90
2019-04-02T10:24:20.755Z,19.43
2019-04-02T10:26:50.859Z,18.67
2019-04-02T10:29:23.452Z,19.73
2019-04-02T10:31:52.843Z,18.57
2019-04-02T10:34:22.964Z,21.40
2019-04-02T10:36:56.837Z,21.50
2019-04-02T10:39:24.937Z,26.13
2019-04-02T10:41:55.012Z,22.43
2019-04-02T10:44:25.185Z,23.73
2019-04-02T10:46:55.380Z,22.90
2019-04-02T10:49:25.509Z,22.57
2019-04-02T10:51:55.885Z,22.93
2019-04-02T10:54:26.075Z,23.00
2019-04-02T10:56:57.855Z,23.93
2019-04-02T10:59:28.099Z,23.13
2019-04-02T11:01:59.396Z,25.67
2019-04-02T11:04:30.232Z,25.13
2019-04-02T11:07:01.018Z,25.03
2019-04-02T11:09:31.106Z,25.13
2019-04-02T11:12:01.231Z,28.63
2019-04-02T11:14:31.321Z,27.17
2019-04-02T11:17:01.365Z,26.90
2019-04-02T11:19:31.459Z,24.60
2019-04-02T11:22:01.674Z,27.07
2019-04-02T11:24:31.822Z,25.17
2019-04-02T11:27:01.955Z,25.03
2019-04-02T11:29:32.284Z,25.40
2019-04-02T11:32:14.428Z,24.00
2019-04-02T11:34:44.578Z,25.00
2019-04-02T11:37:15.301Z,24.07
2019-04-02T11:39:45.635Z,23.27
2019-04-02T11:42:15.712Z,22.97
2019-04-02T11:44:46.032Z,25.00
2019-04-02T11:47:16.244Z,24.50
2019-04-02T11:49:46.568Z,22.77
2019-04-02T11:52:17.079Z,22.67
2019-04-02T11:54:47.277Z,23.47
2019-04-02T11:57:17.662Z,22.97
2019-04-02T11:59:47.834Z,21.10
2019-04-02T12:02:18.065Z,22.03
2019-04-02T12:04:48.199Z,22.53
2019-04-02T12:07:18.297Z,23.60
2019-04-02T12:09:48.737Z,21.67
2019-04-02T12:12:18.883Z,22.27
2019-04-02T12:14:48.937Z,21.20
2019-04-02T12:17:18.994Z,23.10
2019-04-02T12:19:50.856Z,23.60
2019-04-02T12:22:20.951Z,21.77
2019-04-02T12:24:51.629Z,23.07
2019-04-02T12:27:25.169Z,20.63
2019-04-02T12:29:54.668Z,21.17
2019-04-02T12:32:24.721Z,19.70
2019-04-02T12:34:58.202Z,21.40
2019-04-02T12:37:28.746Z,21.57
2019-04-02T12:40:00.218Z,20.97
2019-04-02T12:42:30.666Z,21.83
2019-04-02T12:45:03.840Z,23.23
2019-04-02T12:47:34.434Z,22.47
2019-04-02T12:50:06.688Z,20.83
2019-04-02T12:52:36.611Z,22.50
2019-04-02T12:55:07.028Z,22.73
2019-04-02T12:57:37.160Z,22.83
2019-04-02T13:00:08.198Z,22.87
2019-04-02T13:02:38.605Z,22.70
2019-04-02T13:05:09.869Z,23.90
2019-04-02T13:07:40.005Z,22.93
2019-04-02T13:10:12.152Z,23.60
2019-04-02T13:12:42.187Z,24.07
2019-04-02T13:15:24.381Z,22.97
2019-04-02T13:17:44.524Z,23.73
2019-04-02T13:20:15.096Z,23.03
2019-04-02T13:22:45.269Z,23.30
2019-04-02T13:25:15.658Z,22.87
2019-04-02T13:27:45.783Z,23.03
2019-04-02T13:30:17.479Z,24.70
2019-04-02T13:32:48.002Z,22.73
2019-04-02T13:35:18.331Z,22.30
2019-04-02T13:37:48.469Z,22.83
2019-04-02T13:40:18.666Z,22.13
2019-04-02T13:42:50.546Z,23.67
2019-04-02T13:45:21.214Z,23.87
2019-04-02T13:47:51.417Z,22.43
2019-04-02T13:50:21.727Z,23.47
2019-04-02T13:52:51.776Z,23.17
2019-04-02T13:55:21.879Z,23.73
2019-04-02T13:57:51.998Z,23.90
2019-04-02T14:00:45.185Z,26.30
2019-04-02T14:03:15.261Z,23.87
2019-04-02T14:05:46.980Z,24.20
2019-04-02T14:08:17.203Z,24.10
2019-04-02T14:10:47.341Z,23.00
2019-04-02T14:13:18.071Z,22.27
2019-04-02T14:15:50.589Z,21.47
2019-04-02T14:18:20.720Z,22.40
2019-04-02T14:20:50.935Z,22.60
2019-04-02T14:23:21.043Z,23.77
2019-04-02T14:25:51.168Z,22.00
2019-04-02T14:28:21.200Z,19.53
2019-04-02T14:30:51.606Z,22.93
2019-04-02T14:33:27.280Z,20.83
2019-04-02T14:35:56.765Z,20.20
2019-04-02T14:38:33.840Z,20.17
2019-04-02T14:40:59.262Z,20.80
2019-04-02T14:43:29.367Z,21.17
2019-04-02T14:45:59.498Z,21.10
2019-04-02T14:48:32.353Z,21.17
2019-04-02T14:51:02.435Z,23.00
2019-04-02T14:53:32.479Z,24.27
2019-04-02T14:56:02.620Z,19.13
2019-04-02T14:58:32.793Z,22.43
2019-04-02T15:01:06.003Z,11.10
2019-04-02T15:03:36.161Z,11.33
2019-04-02T15:06:06.863Z,9.30
2019-04-02T15:08:38.660Z,8.67
2019-04-02T15:11:10.877Z,10.73
2019-04-02T15:13:46.294Z,8.63
2019-04-02T15:16:16.025Z,8.90
2019-04-02T15:18:50.649Z,8.83
2019-04-02T15:21:20.791Z,9.83
2019-04-02T15:23:50.885Z,10.70
2019-04-02T15:26:22.436Z,12.80
2019-04-02T15:28:52.764Z,9.63
2019-04-02T15:31:22.849Z,8.67
2019-04-02T15:33:53.068Z,9.87
2019-04-02T15:36:23.242Z,7.53
2019-04-02T15:38:53.735Z,9.97
2019-04-02T15:41:23.894Z,9.50
2019-04-02T15:43:53.951Z,10.23
2019-04-02T15:46:26.203Z,10.37
2019-04-02T15:48:57.602Z,9.37
2019-04-02T15:51:27.853Z,10.77
2019-04-02T15:53:58.798Z,10.30
2019-04-02T15:56:31.958Z,12.47
2019-04-02T15:59:02.195Z,11.83
2019-04-02T16:01:32.313Z,10.57
2019-04-02T16:04:02.390Z,14.50
2019-04-02T16:06:32.622Z,12.20
2019-04-02T16:09:02.818Z,14.93
2019-04-02T16:11:33.150Z,13.40
2019-04-02T16:14:03.205Z,11.87
2019-04-02T16:16:33.483Z,11.07
2019-04-02T16:19:04.089Z,10.43
2019-04-02T16:21:34.164Z,12.73
2019-04-02T16:24:04.285Z,10.87
2019-04-02T16:26:34.384Z,13.13
2019-04-02T16:29:04.540Z,10.70
2019-04-02T16:31:34.690Z,12.10
2019-04-02T16:34:04.854Z,11.93
2019-04-02T16:36:35.159Z,11.57
2019-04-02T16:39:08.070Z,13.20
2019-04-02T16:41:38.516Z,9.80
2019-04-02T16:44:11.466Z,12.80
2019-04-02T16:46:40.609Z,13.73
2019-04-02T16:49:10.796Z,12.47
2019-04-02T16:51:41.130Z,10.00
2019-04-02T16:54:11.660Z,11.70
2019-04-02T16:56:41.843Z,10.77
2019-04-02T16:59:12.004Z,12.00
2019-04-02T17:01:43.182Z,10.73
2019-04-02T17:04:13.423Z,10.43
2019-04-02T17:06:43.819Z,11.30
2019-04-02T17:09:16.206Z,10.20
2019-04-02T17:11:48.182Z,11.40
2019-04-02T17:14:18.827Z,11.57
2019-04-02T17:16:49.286Z,11.80
2019-04-02T17:19:20.127Z,10.87
2019-04-02T17:21:50.681Z,12.40
2019-04-02T17:24:20.918Z,11.83
2019-04-02T17:26:51.153Z,13.37
2019-04-02T17:29:21.828Z,12.57
2019-04-02T17:31:52.018Z,12.70
2019-04-02T17:34:22.198Z,12.70
2019-04-02T17:36:52.540Z,12.57
2019-04-02T17:39:22.707Z,14.57
2019-04-02T17:41:52.957Z,12.73
2019-04-02T17:44:23.333Z,13.07
2019-04-02T17:46:56.338Z,12.50
2019-04-02T17:49:28.635Z,14.83
2019-04-02T17:52:00.194Z,14.80
2019-04-02T17:54:30.435Z,14.90
2019-04-02T17:57:00.795Z,14.47
2019-04-02T18:02:12.393Z,15.50
2019-04-02T18:04:43.997Z,14.83
2019-04-02T18:07:14.289Z,17.63
2019-04-02T18:09:44.513Z,16.57
2019-04-02T18:12:14.791Z,15.07
2019-04-02T18:14:45.168Z,19.07
2019-04-02T18:17:15.673Z,19.13
2019-04-02T18:19:47.432Z,20.77
2019-04-02T18:22:17.718Z,22.40
2019-04-02T18:24:47.898Z,23.17
2019-04-02T18:27:18.099Z,24.43
2019-04-02T18:29:50.060Z,16.90
2019-04-02T18:32:20.510Z,14.53
2019-04-02T18:34:51.964Z,13.73
2019-04-02T18:37:22.515Z,14.50
2019-04-02T18:39:52.695Z,15.40
2019-04-02T18:42:22.729Z,13.77
2019-04-02T18:44:52.805Z,13.03
2019-04-02T18:47:22.975Z,18.47
2019-04-02T18:49:56.696Z,14.07
2019-04-02T18:52:30.480Z,12.67
2019-04-02T18:55:00.581Z,11.03
2019-04-02T18:57:30.726Z,9.67
2019-04-02T19:00:00.785Z,9.07
2019-04-02T19:02:33.248Z,9.30
2019-04-02T19:05:06.769Z,7.13
2019-04-02T19:07:36.906Z,9.87
2019-04-02T19:10:14.040Z,7.73
2019-04-02T19:12:40.175Z,6.67
2019-04-02T19:15:10.271Z,7.37
2019-04-02T19:17:40.537Z,7.70
2019-04-02T19:20:11.121Z,7.13
2019-04-02T19:22:41.240Z,5.77
2019-04-02T19:25:11.262Z,5.47
2019-04-02T19:27:41.394Z,5.13
2019-04-02T19:30:15.270Z,4.33
2019-04-02T19:32:45.589Z,4.60
2019-04-02T19:35:15.714Z,5.03
2019-04-02T19:37:45.839Z,6.00
2019-04-02T19:40:15.976Z,4.33
2019-04-02T19:42:46.141Z,3.97
2019-04-02T19:45:16.251Z,3.83
2019-04-02T19:47:46.330Z,4.53
2019-04-02T19:50:16.516Z,5.30
2019-04-02T19:52:49.952Z,4.80
2019-04-02T19:55:20.129Z,4.33
2019-04-02T19:57:53.443Z,4.53
2019-04-02T20:00:22.155Z,4.50
2019-04-02T20:02:52.314Z,4.03
2019-04-02T20:05:26.012Z,3.00
2019-04-02T20:07:56.156Z,4.03
2019-04-02T20:10:26.326Z,3.83
2019-04-02T20:12:56.426Z,3.10
2019-04-02T20:15:27.414Z,3.67
2019-04-02T20:17:57.664Z,3.03
2019-04-02T20:20:27.723Z,4.10
2019-04-02T20:22:57.912Z,3.57
2019-04-02T20:25:30.732Z,3.77
2019-04-02T20:27:59.849Z,4.60
2019-04-02T20:30:29.889Z,4.10
2019-04-02T20:33:00.645Z,2.93
2019-04-02T20:35:30.898Z,4.17
2019-04-02T20:38:01.123Z,3.63
2019-04-02T20:40:32.204Z,3.20
2019-04-02T20:43:02.286Z,2.90
2019-04-02T20:45:32.553Z,4.30
2019-04-02T20:48:03.988Z,3.20
2019-04-02T20:50:34.715Z,3.30
2019-04-02T20:53:15.850Z,3.00
2019-04-02T20:55:38.654Z,3.97
2019-04-02T20:58:09.719Z,4.80
2019-04-02T21:00:43.018Z,3.03
2019-04-02T21:03:13.208Z,3.60
2019-04-02T21:05:43.307Z,3.63
2019-04-02T21:08:22.347Z,3.57
2019-04-02T21:10:45.554Z,3.33
2019-04-02T21:13:18.313Z,3.73
2019-04-02T21:15:47.996Z,4.03
2019-04-02T21:18:18.297Z,4.83
2019-04-02T21:20:48.536Z,3.40
2019-04-02T21:23:18.736Z,3.40
2019-04-02T21:25:49.575Z,5.07
2019-04-02T21:28:23.114Z,3.40
2019-04-02T21:30:52.202Z,4.60
2019-04-02T21:33:33.574Z,5.53
2019-04-02T21:35:54.112Z,3.37
2019-04-02T21:38:24.274Z,3.70
2019-04-02T21:40:54.396Z,3.33
2019-04-02T21:43:24.526Z,3.67
2019-04-02T21:45:54.572Z,3.80
2019-04-02T21:48:24.778Z,3.67
2019-04-02T21:50:54.836Z,4.07
2019-04-02T21:53:25.142Z,3.93
2019-04-02T21:55:55.413Z,4.47
2019-04-02T21:58:25.567Z,3.60
2019-04-02T22:00:56.703Z,4.83
2019-04-02T22:03:26.855Z,3.53
2019-04-02T22:05:56.876Z,4.27
2019-04-02T22:08:26.989Z,4.53
2019-04-02T22:10:57.077Z,6.67
2019-04-02T22:13:27.234Z,5.80
2019-04-02T22:15:57.288Z,5.40
2019-04-02T22:18:27.506Z,4.93
2019-04-02T22:20:57.719Z,5.40
2019-04-02T22:23:27.770Z,5.97
2019-04-02T22:25:57.869Z,6.40
2019-04-02T22:28:28.072Z,5.77
2019-04-02T22:30:58.106Z,5.53
2019-04-02T22:33:37.124Z,7.50
2019-04-02T22:35:59.956Z,5.50
2019-04-02T22:38:30.103Z,4.43
2019-04-02T22:41:00.155Z,5.37
2019-04-02T22:43:30.220Z,6.40
2019-04-02T22:46:00.350Z,6.30
2019-04-02T22:48:30.506Z,5.30
2019-04-02T22:51:00.549Z,4.97
2019-04-02T22:53:30.734Z,6.60
2019-04-02T22:56:02.513Z,5.10
2019-04-02T22:58:32.853Z,6.00
2019-04-02T23:01:03.327Z,6.70
2019-04-02T23:03:33.634Z,6.43
2019-04-02T23:06:03.722Z,6.93
2019-04-02T23:08:33.834Z,6.30
2019-04-02T23:11:04.145Z,5.07
2019-04-02T23:13:34.253Z,6.90
2019-04-02T23:16:23.757Z,6.17
2019-04-02T23:18:36.348Z,8.77
2019-04-02T23:21:06.913Z,6.40
2019-04-02T23:23:37.201Z,6.37
2019-04-02T23:26:07.255Z,7.43
2019-04-02T23:28:37.336Z,6.50
2019-04-02T23:31:07.620Z,5.70
2019-04-02T23:33:37.817Z,6.07
2019-04-02T23:36:07.977Z,6.43
2019-04-02T23:38:38.154Z,6.07
2019-04-02T23:41:08.245Z,5.80
2019-04-02T23:43:38.355Z,7.83
2019-04-02T23:46:08.416Z,5.70
2019-04-02T23:48:38.611Z,6.03
2019-04-02T23:51:08.679Z,7.60
2019-04-02T23:53:38.809Z,9.67
2019-04-02T23:56:09.139Z,6.97
2019-04-02T23:58:39.206Z,7.37
